Time;durP1;ratioP1;P1;durP2;ratioP2;P2;SDS_P1;SDS_P2;PMS_P1;PMS_P2;Temp;Humidity;BMP_temperature;BMP_pressure;BME280_temperature;BME280_humidity;BME280_pressure;Samples;Min_cycle;Max_cycle;Signal;HPM_P1;HPM_P2
2023/03/22 00:01:29;;;;;;;;;;;;;;;27.65;24.53;98095.34;5048877;28;19920;-86
2023/03/22 00:03:56;;;;;;;;;;;;;;;26.91;24.88;98091.47;5046629;28;20022;-86
2023/03/22 00:06:22;;;;;;;;;;;;;;;26.73;25.41;98104.06;5041290;28;19917;-85
2023/03/22 00:08:50;;;;;;;;;;;;;;;26.95;25.11;98084.47;5049160;28;20028;-85
2023/03/22 00:11:17;;;;;;;;;;;;;;;26.15;26.01;98076.56;5050680;28;20015;-86
2023/03/22 00:13:45;;;;;;;;;;;;;;;25.48;26.63;98076.47;5048635;28;19913;-85
2023/03/22 00:16:12;;;;;;;;;;;;;;;26.04;25.85;98069.19;5051020;28;19924;-86
2023/03/22 00:18:38;;;;;;;;;;;;;;;26.68;25.07;98073.66;5051716;28;19921;-83
2023/03/22 00:21:04;;;;;;;;;;;;;;;27.07;24.59;98077.25;5047420;28;19940;-85
2023/03/22 00:23:30;;;;;;;;;;;;;;;27.02;24.54;98069.34;5048966;28;20273;-86
2023/03/22 00:25:56;;;;;;;;;;;;;;;26.16;25.63;98067.69;5044875;28;19967;-86
2023/03/22 00:28:23;;;;;;;;;;;;;;;25.93;25.82;98074.34;5043473;28;19921;-85
2023/03/22 00:30:50;;;;;;;;;;;;;;;26.20;25.66;98068.38;5051753;28;19928;-85
2023/03/22 00:33:16;;;;;;;;;;;;;;;26.65;25.16;98068.16;5054806;28;19921;-85
2023/03/22 00:35:53;;;;;;;;;;;;;;;26.59;24.92;98065.09;5055530;28;20057;-85
2023/03/22 00:38:19;;;;;;;;;;;;;;;26.24;25.78;98068.25;5053206;28;19921;-85
2023/03/22 00:40:45;;;;;;;;;;;;;;;26.36;25.15;98064.66;5053614;28;19920;-85
2023/03/22 00:43:12;;;;;;;;;;;;;;;26.62;25.15;98069.84;5052615;28;20435;-85
2023/03/22 00:45:39;;;;;;;;;;;;;;;26.81;24.79;98068.06;5055231;28;20358;-86
2023/03/22 00:48:07;;;;;;;;;;;;;;;26.90;24.72;98070.16;5055532;28;19970;-85
2023/03/22 00:50:33;;;;;;;;;;;;;;;27.10;24.47;98060.19;5053540;28;20407;-86
2023/03/22 00:52:59;;;;;;;;;;;;;;;26.83;24.04;98059.94;5052781;28;19917;-86
2023/03/22 00:55:25;;;;;;;;;;;;;;;26.24;25.02;98054.16;5054012;28;19932;-86
2023/03/22 00:57:51;;;;;;;;;;;;;;;25.68;25.57;98068.66;5047940;28;19920;-86
2023/03/22 01:00:17;;;;;;;;;;;;;;;25.66;25.83;98062.72;5049756;28;20300;-86
2023/03/22 01:02:43;;;;;;;;;;;;;;;25.59;25.74;98059.31;5052450;28;20986;-86
2023/03/22 01:05:14;;;;;;;;;;;;;;;25.53;25.78;98055.47;5050378;28;19921;-86
2023/03/22 01:07:41;;;;;;;;;;;;;;;25.07;26.18;98051.84;5053498;28;20276;-86
2023/03/22 01:10:08;;;;;;;;;;;;;;;25.02;26.31;98055.19;5055744;28;20007;-86
2023/03/22 01:12:34;;;;;;;;;;;;;;;25.20;26.43;98054.75;5054184;28;20292;-86
2023/03/22 01:15:01;;;;;;;;;;;;;;;25.47;25.70;98045.97;5058883;28;19927;-86
2023/03/22 01:17:27;;;;;;;;;;;;;;;25.80;25.50;98041.81;5053764;28;19933;-85
2023/03/22 01:19:53;;;;;;;;;;;;;;;26.34;24.91;98042.59;5047128;28;19956;-85
2023/03/22 01:22:19;;;;;;;;;;;;;;;26.50;24.19;98033.22;5047130;28;19947;-86
2023/03/22 01:24:45;;;;;;;;;;;;;;;26.05;24.39;98030.59;5053704;28;19932;-85
2023/03/22 01:27:11;;;;;;;;;;;;;;;25.82;25.59;98033.72;5051399;28;19921;-85
2023/03/22 01:29:37;;;;;;;;;;;;;;;26.08;24.67;98030.50;5046065;28;19925;-85
2023/03/22 01:32:03;;;;;;;;;;;;;;;25.92;24.51;98030.59;5035180;28;20285;-85
2023/03/22 01:34:30;;;;;;;;;;;;;;;25.72;24.88;98029.97;5050877;28;19968;-85
2023/03/22 01:36:56;;;;;;;;;;;;;;;25.62;25.19;98019.84;5051961;28;19921;-85
2023/03/22 01:39:22;;;;;;;;;;;;;;;25.07;25.54;98018.13;5045743;28;19921;-85
2023/03/22 01:41:48;;;;;;;;;;;;;;;24.98;25.06;98020.78;5056297;28;19921;-85
2023/03/22 01:44:18;;;;;;;;;;;;;;;24.27;26.65;98016.13;5047826;28;19927;-85
2023/03/22 01:46:45;;;;;;;;;;;;;;;24.72;26.21;98010.59;5054483;28;19929;-84
2023/03/22 01:49:14;;;;;;;;;;;;;;;24.63;25.99;98000.00;5051076;28;19917;-85
2023/03/22 01:51:40;;;;;;;;;;;;;;;24.72;25.99;97996.56;5066127;28;19920;-85
2023/03/22 01:54:08;;;;;;;;;;;;;;;25.00;25.19;98001.47;5049794;28;19917;-85
2023/03/22 01:56:36;;;;;;;;;;;;;;;25.42;25.25;98000.28;5048222;28;20011;-85
2023/03/22 01:59:02;;;;;;;;;;;;;;;25.19;24.97;97994.94;5052383;28;19968;-85
2023/03/22 02:01:29;;;;;;;;;;;;;;;25.00;25.14;98000.69;5053636;28;19916;-85
2023/03/22 02:04:05;;;;;;;;;;;;;;;25.34;25.24;97989.72;5049648;28;19999;-86
2023/03/22 02:06:36;;;;;;;;;;;;;;;25.29;24.78;97988.22;5051243;28;19923;-86
2023/03/22 02:09:08;;;;;;;;;;;;;;;24.73;25.25;97986.94;5049102;28;19932;-85
2023/03/22 02:11:37;;;;;;;;;;;;;;;22.87;28.21;97987.00;5050967;28;19917;-86
2023/03/22 02:14:10;;;;;;;;;;;;;;;23.25;27.31;97976.28;5053858;28;19920;-86
2023/03/22 02:16:47;;;;;;;;;;;;;;;22.92;27.94;97982.97;5050849;28;19925;-86
2023/03/22 02:19:19;;;;;;;;;;;;;;;23.87;26.38;97981.00;5051316;28;19925;-86
2023/03/22 02:22:05;;;;;;;;;;;;;;;24.49;25.54;97982.72;5049439;28;19921;-86
2023/03/22 02:24:37;;;;;;;;;;;;;;;24.05;26.31;97976.56;5049664;28;19920;-86
2023/03/22 02:27:21;;;;;;;;;;;;;;;23.94;26.21;97972.41;5048716;28;19925;-86
2023/03/22 02:29:59;;;;;;;;;;;;;;;22.46;28.25;97975.34;5048747;28;19931;-86
2023/03/22 02:32:33;;;;;;;;;;;;;;;22.20;28.62;97968.56;5053040;28;19921;-85
2023/03/22 02:35:08;;;;;;;;;;;;;;;21.61;29.79;97973.03;5054678;28;19921;-85
2023/03/22 02:37:53;;;;;;;;;;;;;;;21.69;29.67;97969.72;5045659;28;19924;-85
2023/03/22 02:40:25;;;;;;;;;;;;;;;22.14;28.64;97961.88;5049248;28;19966;-85
2023/03/22 02:42:53;;;;;;;;;;;;;;;22.33;28.16;97957.59;5048460;28;19921;-85
2023/03/22 02:45:42;;;;;;;;;;;;;;;22.73;27.37;97959.31;5051920;28;20368;-85
2023/03/22 02:48:12;;;;;;;;;;;;;;;22.46;27.93;97964.94;5048304;28;19960;-85
2023/03/22 02:50:45;;;;;;;;;;;;;;;22.77;27.31;97954.44;5045955;28;19916;-84
2023/03/22 02:53:11;;;;;;;;;;;;;;;22.30;27.89;97959.22;5052467;28;19975;-85
2023/03/22 02:55:43;;;;;;;;;;;;;;;21.44;29.65;97958.09;5050722;28;19921;-85
2023/03/22 02:58:15;;;;;;;;;;;;;;;21.68;28.99;97956.94;5050196;28;19927;-85
2023/03/22 03:00:42;;;;;;;;;;;;;;;21.54;29.30;97953.59;5055556;28;19979;-85
2023/03/22 03:03:11;;;;;;;;;;;;;;;21.97;28.14;97962.94;5046095;28;20305;-85
2023/03/22 03:05:39;;;;;;;;;;;;;;;21.86;28.19;97953.94;5049343;28;20304;-85
2023/03/22 03:08:06;;;;;;;;;;;;;;;22.07;27.63;97950.81;5050719;28;19972;-85
2023/03/22 03:10:32;;;;;;;;;;;;;;;22.31;27.48;97949.59;5047582;28;20316;-85
2023/03/22 03:12:58;;;;;;;;;;;;;;;22.52;27.15;97948.47;5051023;28;19921;-85
2023/03/22 03:15:24;;;;;;;;;;;;;;;21.96;28.23;97953.75;5049270;28;19933;-85
2023/03/22 03:17:50;;;;;;;;;;;;;;;22.25;28.07;97961.69;5050559;28;19947;-85
2023/03/22 03:20:23;;;;;;;;;;;;;;;22.58;27.46;97961.53;5050667;28;19974;-85
2023/03/22 03:22:49;;;;;;;;;;;;;;;22.64;26.96;97967.44;5052393;28;20348;-85
2023/03/22 03:25:25;;;;;;;;;;;;;;;23.14;25.99;97961.72;5050953;28;19924;-85
2023/03/22 03:27:58;;;;;;;;;;;;;;;23.02;26.10;97968.75;5048493;28;19921;-86
2023/03/22 03:30:31;;;;;;;;;;;;;;;23.14;26.27;97962.50;5049790;28;19927;-86
2023/03/22 03:32:59;;;;;;;;;;;;;;;22.78;26.44;97966.41;5052569;28;20004;-86
2023/03/22 03:35:32;;;;;;;;;;;;;;;22.87;26.33;97964.63;5052476;28;19986;-85
2023/03/22 03:38:17;;;;;;;;;;;;;;;23.06;25.86;97961.06;5051820;28;19933;-85
2023/03/22 03:40:49;;;;;;;;;;;;;;;23.71;24.87;97958.53;5038637;28;19921;-85
2023/03/22 03:43:15;;;;;;;;;;;;;;;23.94;24.58;97958.41;5049258;28;20015;-85
2023/03/22 03:45:41;;;;;;;;;;;;;;;24.00;24.53;97956.66;5066568;28;19931;-84
2023/03/22 03:48:10;;;;;;;;;;;;;;;23.59;24.97;97948.78;5047914;28;20347;-85
2023/03/22 03:50:36;;;;;;;;;;;;;;;23.73;24.92;97959.69;5052653;28;19927;-85
2023/03/22 03:53:03;;;;;;;;;;;;;;;23.98;24.47;97954.28;5052849;28;20288;-84
2023/03/22 03:55:29;;;;;;;;;;;;;;;23.71;25.03;97955.72;5049750;28;19920;-85
2023/03/22 03:57:55;;;;;;;;;;;;;;;23.22;25.86;97963.16;5051839;28;19954;-85
2023/03/22 04:00:21;;;;;;;;;;;;;;;23.10;25.85;97958.19;5045944;28;20015;-85
2023/03/22 04:02:47;;;;;;;;;;;;;;;22.89;26.18;97962.19;5052255;28;20342;-84
2023/03/22 04:05:13;;;;;;;;;;;;;;;23.18;25.72;97966.00;5058078;28;19927;-85
2023/03/22 04:07:40;;;;;;;;;;;;;;;23.55;25.18;97964.09;5065587;28;20297;-84
2023/03/22 04:10:06;;;;;;;;;;;;;;;23.84;24.43;97967.84;5051872;28;19921;-84
2023/03/22 04:12:32;;;;;;;;;;;;;;;23.45;24.72;97959.50;5054944;28;19927;-84
2023/03/22 04:14:58;;;;;;;;;;;;;;;23.02;25.60;97956.75;5057213;28;19920;-85
2023/03/22 04:17:27;;;;;;;;;;;;;;;22.64;25.87;97965.44;5049124;28;19925;-84
2023/03/22 04:19:56;;;;;;;;;;;;;;;23.07;25.21;97964.66;5054755;28;19921;-85
2023/03/22 04:22:23;;;;;;;;;;;;;;;23.22;25.13;97969.53;5058679;28;19928;-84
2023/03/22 04:24:49;;;;;;;;;;;;;;;23.21;24.96;97967.16;5052795;28;20012;-85
2023/03/22 04:27:16;;;;;;;;;;;;;;;23.62;24.63;97970.31;5052000;28;19921;-85
2023/03/22 04:29:47;;;;;;;;;;;;;;;23.81;24.49;97974.31;5052172;28;19960;-85
2023/03/22 04:32:17;;;;;;;;;;;;;;;23.96;24.24;97972.78;5051371;28;19928;-85
2023/03/22 04:34:45;;;;;;;;;;;;;;;24.16;23.97;97972.72;5054842;28;19920;-85
2023/03/22 04:37:11;;;;;;;;;;;;;;;24.32;23.86;97983.97;5054098;28;19921;-86
2023/03/22 04:39:37;;;;;;;;;;;;;;;24.54;23.33;97979.41;5049009;28;19963;-86
2023/03/22 04:42:03;;;;;;;;;;;;;;;24.72;23.53;97976.91;5055142;28;19917;-84
2023/03/22 04:44:29;;;;;;;;;;;;;;;24.92;22.49;97980.44;5050562;28;20312;-85
2023/03/22 04:46:56;;;;;;;;;;;;;;;25.02;22.52;97982.16;5049959;28;19939;-85
2023/03/22 04:49:22;;;;;;;;;;;;;;;24.53;22.80;97987.03;5051928;28;20384;-86
2023/03/22 04:51:48;;;;;;;;;;;;;;;24.69;23.00;97980.63;5054388;28;20423;-85
2023/03/22 04:54:15;;;;;;;;;;;;;;;24.87;22.84;97985.78;5050603;28;20392;-85
2023/03/22 04:56:41;;;;;;;;;;;;;;;24.90;22.37;97988.50;5049584;28;20269;-86
2023/03/22 04:59:07;;;;;;;;;;;;;;;24.97;22.28;97981.91;5063477;28;19928;-85
2023/03/22 05:01:34;;;;;;;;;;;;;;;24.96;22.22;97989.56;5068628;28;19921;-85
2023/03/22 05:04:00;;;;;;;;;;;;;;;25.00;22.20;97983.81;5051708;28;19924;-85
2023/03/22 05:06:26;;;;;;;;;;;;;;;25.04;22.00;97987.34;5052396;28;19920;-85
2023/03/22 05:08:52;;;;;;;;;;;;;;;25.19;22.05;97991.31;5052894;28;19928;-87
2023/03/22 05:11:19;;;;;;;;;;;;;;;25.24;21.96;97994.41;5052600;28;19974;-86
2023/03/22 05:13:45;;;;;;;;;;;;;;;25.34;21.81;97987.66;5048895;28;19925;-85
2023/03/22 05:16:11;;;;;;;;;;;;;;;25.48;21.72;97996.97;5052542;28;19939;-85
2023/03/22 05:18:41;;;;;;;;;;;;;;;25.67;21.42;97999.59;5050871;28;19921;-84
2023/03/22 05:21:12;;;;;;;;;;;;;;;25.63;21.63;97996.09;5052060;28;19979;-85
2023/03/22 05:23:38;;;;;;;;;;;;;;;25.39;22.20;97995.56;5043043;28;19921;-84
2023/03/22 05:26:04;;;;;;;;;;;;;;;25.44;22.32;98008.31;5047649;28;19920;-85
2023/03/22 05:28:30;;;;;;;;;;;;;;;25.13;21.77;98004.34;5048283;28;19920;-85
2023/03/22 05:30:56;;;;;;;;;;;;;;;24.68;22.70;98001.50;5044070;28;19921;-84
2023/03/22 05:33:22;;;;;;;;;;;;;;;24.48;22.81;98000.81;5045909;28;20052;-84
2023/03/22 05:35:49;;;;;;;;;;;;;;;23.87;23.42;98004.22;5048695;28;19937;-83
2023/03/22 05:38:15;;;;;;;;;;;;;;;23.79;23.78;98000.00;5051404;28;19925;-82
2023/03/22 05:40:42;;;;;;;;;;;;;;;23.86;24.33;98005.44;5052238;28;19920;-82
2023/03/22 05:43:08;;;;;;;;;;;;;;;23.92;23.92;98000.88;5052930;28;19921;-84
2023/03/22 05:45:35;;;;;;;;;;;;;;;23.91;24.20;97999.31;5048387;28;19929;-84
2023/03/22 05:48:02;;;;;;;;;;;;;;;24.37;24.10;97989.03;5039259;28;19921;-84
2023/03/22 05:50:28;;;;;;;;;;;;;;;24.32;24.10;97995.22;5052478;28;19974;-85
2023/03/22 05:52:55;;;;;;;;;;;;;;;24.01;24.47;97995.47;5046049;28;20319;-89
2023/03/22 05:55:22;;;;;;;;;;;;;;;23.89;25.38;97993.34;5047393;28;20030;-84
2023/03/22 05:57:50;;;;;;;;;;;;;;;23.88;25.77;97993.78;5047743;28;20015;-88
2023/03/22 06:00:17;;;;;;;;;;;;;;;24.20;25.56;98004.31;5047868;28;19924;-84
2023/03/22 06:02:43;;;;;;;;;;;;;;;24.58;25.69;97997.72;5051825;28;19921;-84
2023/03/22 06:05:10;;;;;;;;;;;;;;;24.18;26.52;98003.97;5052875;28;19974;-84
2023/03/22 06:07:36;;;;;;;;;;;;;;;24.00;26.96;98001.53;5053208;28;20389;-84
2023/03/22 06:10:02;;;;;;;;;;;;;;;24.20;26.76;97995.88;5067761;28;19947;-84
2023/03/22 06:12:29;;;;;;;;;;;;;;;24.69;26.39;97997.47;5059142;28;19917;-84
2023/03/22 06:14:55;;;;;;;;;;;;;;;24.89;26.49;97995.34;5054351;28;19920;-84
2023/03/22 06:17:21;;;;;;;;;;;;;;;25.23;26.22;98009.66;5054383;28;19916;-84
2023/03/22 06:19:47;;;;;;;;;;;;;;;24.10;27.73;97997.72;5053713;28;20008;-84
2023/03/22 06:22:13;;;;;;;;;;;;;;;23.54;29.65;98002.53;5053135;28;19960;-84
2023/03/22 06:24:39;;;;;;;;;;;;;;;24.02;28.60;98011.06;5052978;28;19971;-84
2023/03/22 06:27:05;;;;;;;;;;;;;;;25.09;27.02;98006.44;5068976;28;20265;-84
2023/03/22 06:29:32;;;;;;;;;;;;;;;25.19;27.63;98008.97;5050385;28;20292;-84
2023/03/22 06:31:58;;;;;;;;;;;;;;;24.66;27.51;98001.16;5051297;28;19920;-84
2023/03/22 06:34:25;;;;;;;;;;;;;;;24.37;28.74;98005.88;5051485;28;19970;-84
2023/03/22 06:36:52;;;;;;;;;;;;;;;23.53;30.39;98009.34;5057533;28;20411;-84
2023/03/22 06:39:21;;;;;;;;;;;;;;;23.63;30.14;98005.53;5052968;28;19927;-84
2023/03/22 06:41:47;;;;;;;;;;;;;;;23.64;29.52;98006.34;5051190;28;19921;-84
2023/03/22 06:44:14;;;;;;;;;;;;;;;23.80;29.65;97997.97;5052116;28;19936;-84
2023/03/22 06:46:40;;;;;;;;;;;;;;;24.48;28.42;97998.00;5051192;28;19924;-84
2023/03/22 06:49:06;;;;;;;;;;;;;;;24.37;28.80;98003.88;5052634;28;20011;-84
2023/03/22 06:51:32;;;;;;;;;;;;;;;25.28;26.89;98006.31;5053848;28;19970;-84
2023/03/22 06:53:59;;;;;;;;;;;;;;;25.88;26.80;98001.00;5049066;28;19929;-84
2023/03/22 06:56:25;;;;;;;;;;;;;;;25.83;26.19;97996.72;5053463;28;19928;-85
2023/03/22 06:58:53;;;;;;;;;;;;;;;25.94;26.73;97997.19;5052914;28;19921;-84
2023/03/22 07:01:19;;;;;;;;;;;;;;;26.26;25.95;98001.03;5053697;28;20292;-85
2023/03/22 07:03:45;;;;;;;;;;;;;;;26.32;25.43;97996.41;5053128;28;19929;-85
2023/03/22 07:06:12;;;;;;;;;;;;;;;26.87;25.92;97992.19;5052117;28;19917;-84
2023/03/22 07:08:38;;;;;;;;;;;;;;;26.99;25.63;97994.16;5055763;28;20015;-84
2023/03/22 07:11:04;;;;;;;;;;;;;;;26.70;25.75;97997.94;5053503;28;19984;-84
2023/03/22 07:13:30;;;;;;;;;;;;;;;26.60;26.42;97999.09;5053259;28;19919;-84
2023/03/22 07:15:57;;;;;;;;;;;;;;;26.56;26.13;97989.97;5051293;28;19983;-85
2023/03/22 07:18:24;;;;;;;;;;;;;;;26.93;26.64;97996.00;5059925;28;19925;-84
2023/03/22 07:20:50;;;;;;;;;;;;;;;27.17;26.68;97989.47;5053530;28;19917;-84
2023/03/22 07:23:16;;;;;;;;;;;;;;;26.18;28.60;97996.88;5053426;28;20352;-85
2023/03/22 07:25:43;;;;;;;;;;;;;;;25.78;28.00;97993.66;5052788;28;19917;-84
2023/03/22 07:28:10;;;;;;;;;;;;;;;24.62;30.70;98000.47;5054297;28;19924;-84
2023/03/22 07:30:39;;;;;;;;;;;;;;;25.10;29.54;97999.63;5057660;28;19917;-84
2023/03/22 07:33:05;;;;;;;;;;;;;;;25.49;29.57;97988.09;5039768;28;19921;-85
2023/03/22 07:35:32;;;;;;;;;;;;;;;24.96;30.30;97994.38;5037465;28;20411;-85
2023/03/22 07:37:59;;;;;;;;;;;;;;;25.39;29.21;97995.56;5055897;28;20376;-85
2023/03/22 07:40:26;;;;;;;;;;;;;;;25.23;28.72;97992.00;5051898;28;19925;-84
2023/03/22 07:42:52;;;;;;;;;;;;;;;26.20;27.65;97991.59;5056223;28;20020;-85
2023/03/22 07:45:18;;;;;;;;;;;;;;;26.17;29.00;97984.03;5056521;28;19947;-85
2023/03/22 07:47:45;;;;;;;;;;;;;;;26.45;27.73;97978.28;5056065;28;19921;-85
2023/03/22 07:50:12;;;;;;;;;;;;;;;26.12;28.60;97979.75;5057332;28;19964;-85
2023/03/22 07:52:39;;;;;;;;;;;;;;;25.92;28.45;97984.78;5056754;28;19926;-85
2023/03/22 07:55:05;;;;;;;;;;;;;;;27.36;27.39;97988.38;5057127;28;19927;-85
2023/03/22 07:57:31;;;;;;;;;;;;;;;27.23;27.58;97996.13;5056254;28;19927;-85
2023/03/22 07:59:57;;;;;;;;;;;;;;;27.14;26.63;97990.38;5057050;28;19956;-84
2023/03/22 08:02:23;;;;;;;;;;;;;;;25.66;29.72;97983.19;5050510;28;19924;-85
2023/03/22 08:04:51;;;;;;;;;;;;;;;26.54;28.67;97986.81;5037040;28;19983;-85
2023/03/22 08:07:20;;;;;;;;;;;;;;;27.83;26.76;97982.59;5047320;28;19913;-85
2023/03/22 08:09:46;;;;;;;;;;;;;;;28.20;25.95;97971.50;5056356;28;19928;-85
2023/03/22 08:12:12;;;;;;;;;;;;;;;27.85;27.76;97979.31;5056863;28;19919;-85
2023/03/22 08:14:38;;;;;;;;;;;;;;;28.04;26.57;97978.97;5055966;28;20019;-84
2023/03/22 08:17:04;;;;;;;;;;;;;;;27.04;28.48;97979.50;5056499;28;19925;-85
2023/03/22 08:19:31;;;;;;;;;;;;;;;26.61;29.76;97977.34;5057033;28;19943;-85
2023/03/22 08:21:58;;;;;;;;;;;;;;;27.98;27.13;97977.97;5056713;28;19916;-85
2023/03/22 08:24:25;;;;;;;;;;;;;;;28.81;27.03;97979.88;5056077;28;19966;-85
2023/03/22 08:26:51;;;;;;;;;;;;;;;28.72;26.50;97983.47;5056446;28;19972;-84
2023/03/22 08:29:17;;;;;;;;;;;;;;;29.11;26.42;97984.59;5056565;28;19958;-85
2023/03/22 08:31:44;;;;;;;;;;;;;;;28.42;25.82;97973.00;5056476;28;19917;-85
2023/03/22 08:34:10;;;;;;;;;;;;;;;29.08;26.57;97976.28;5045030;28;19921;-85
2023/03/22 08:36:36;;;;;;;;;;;;;;;29.12;26.29;97974.09;5056088;28;19916;-85
2023/03/22 08:39:03;;;;;;;;;;;;;;;29.50;25.61;97974.38;5056055;28;20298;-85
2023/03/22 08:41:29;;;;;;;;;;;;;;;29.40;24.48;97973.66;5055198;28;19916;-85
2023/03/22 08:43:56;;;;;;;;;;;;;;;28.21;27.15;97978.72;5054685;28;19924;-85
2023/03/22 08:46:22;;;;;;;;;;;;;;;27.93;27.35;97972.94;5056245;28;19972;-85
2023/03/22 08:48:50;;;;;;;;;;;;;;;27.92;28.27;97970.56;5055815;28;20258;-85
2023/03/22 08:51:17;;;;;;;;;;;;;;;29.36;26.11;97981.47;5054777;28;19924;-86
2023/03/22 08:53:43;;;;;;;;;;;;;;;29.38;24.98;97978.97;5055428;28;20373;-85
2023/03/22 08:56:09;;;;;;;;;;;;;;;28.62;25.79;97981.09;5055971;28;19967;-85
2023/03/22 08:58:36;;;;;;;;;;;;;;;27.81;29.53;97978.66;5055937;28;19952;-85
2023/03/22 09:01:02;;;;;;;;;;;;;;;27.95;27.83;97972.47;5055053;28;20447;-85
2023/03/22 09:03:28;;;;;;;;;;;;;;;28.55;30.33;97976.50;5069304;28;19951;-86
2023/03/22 09:05:54;;;;;;;;;;;;;;;28.97;27.59;97965.44;5075693;28;19916;-85
2023/03/22 09:08:20;;;;;;;;;;;;;;;28.54;28.55;97965.66;5075821;28;19917;-85
2023/03/22 09:10:50;;;;;;;;;;;;;;;27.99;29.56;97967.50;5059048;28;20319;-85
2023/03/22 09:13:16;;;;;;;;;;;;;;;28.07;30.57;97960.34;5055627;28;19921;-85
2023/03/22 09:15:43;;;;;;;;;;;;;;;28.04;29.72;97958.44;5055859;28;19920;-86
2023/03/22 09:18:10;;;;;;;;;;;;;;;28.76;27.72;97946.56;5070801;28;19928;-86
2023/03/22 09:20:36;;;;;;;;;;;;;;;30.44;25.64;97942.03;5054381;28;19974;-86
2023/03/22 09:23:03;;;;;;;;;;;;;;;31.29;24.67;97946.97;5054387;28;19925;-86
2023/03/22 09:25:29;;;;;;;;;;;;;;;31.70;24.92;97948.00;5055399;28;20361;-86
2023/03/22 09:27:55;;;;;;;;;;;;;;;31.37;25.22;97948.13;5049792;28;19967;-86
2023/03/22 09:30:21;;;;;;;;;;;;;;;31.13;24.48;97945.38;5054117;28;19979;-86
2023/03/22 09:32:47;;;;;;;;;;;;;;;31.22;22.87;97938.81;5054657;28;20023;-86
2023/03/22 09:35:13;;;;;;;;;;;;;;;30.74;24.78;97938.84;5051070;28;19917;-86
2023/03/22 09:37:39;;;;;;;;;;;;;;;31.00;24.14;97936.31;5053893;28;20338;-86
2023/03/22 09:40:06;;;;;;;;;;;;;;;31.56;24.38;97937.41;5054459;28;19931;-86
2023/03/22 09:42:37;;;;;;;;;;;;;;;32.16;22.96;97926.31;5052509;28;19920;-86
2023/03/22 09:45:04;;;;;;;;;;;;;;;32.55;22.26;97924.88;5054955;28;20051;-86
2023/03/22 09:47:32;;;;;;;;;;;;;;;32.43;21.33;97917.44;5054097;28;19933;-86
2023/03/22 09:50:05;;;;;;;;;;;;;;;32.72;22.82;97916.56;5052760;28;20043;-86
2023/03/22 09:52:31;;;;;;;;;;;;;;;32.37;21.59;97910.88;5054383;28;19963;-86
2023/03/22 09:54:57;;;;;;;;;;;;;;;32.09;22.05;97919.00;5055089;28;19920;-86
2023/03/22 09:57:31;;;;;;;;;;;;;;;32.60;23.31;97912.00;5054476;28;19960;-86
2023/03/22 10:00:10;;;;;;;;;;;;;;;32.84;20.57;97923.19;5054327;28;19921;-86
2023/03/22 10:02:39;;;;;;;;;;;;;;;32.42;23.23;97915.88;5071357;28;19931;-87
2023/03/22 10:05:14;;;;;;;;;;;;;;;32.55;24.32;97912.72;5058183;28;19920;-86
2023/03/22 10:07:40;;;;;;;;;;;;;;;33.12;22.92;97910.09;5033458;28;20376;-86
2023/03/22 10:10:06;;;;;;;;;;;;;;;33.44;23.67;97906.06;5051352;28;19920;-86
2023/03/22 10:12:45;;;;;;;;;;;;;;;32.65;23.62;97902.78;5053835;28;20391;-86
2023/03/22 10:15:27;;;;;;;;;;;;;;;33.12;23.62;97910.09;5054552;28;19932;-86
2023/03/22 10:17:55;;;;;;;;;;;;;;;33.09;22.59;97908.25;5054092;28;20427;-86
2023/03/22 10:20:39;;;;;;;;;;;;;;;33.28;23.54;97904.56;5054766;28;20003;-87
2023/03/22 10:23:09;;;;;;;;;;;;;;;33.65;22.94;97907.56;5052664;28;19925;-87
2023/03/22 10:25:36;;;;;;;;;;;;;;;33.57;22.80;97906.44;5054992;28;19921;-86
2023/03/22 10:28:12;;;;;;;;;;;;;;;33.90;21.82;97897.41;5054290;28;19925;-87
2023/03/22 10:30:39;;;;;;;;;;;;;;;33.79;21.39;97903.81;5041834;28;19917;-87
2023/03/22 10:33:12;;;;;;;;;;;;;;;32.92;22.49;97893.81;5046039;28;20008;-87
2023/03/22 10:35:40;;;;;;;;;;;;;;;32.84;22.96;97894.75;5052898;28;19964;-86
2023/03/22 10:38:12;;;;;;;;;;;;;;;32.64;24.10;97892.69;5045489;28;19995;-87
2023/03/22 10:40:39;;;;;;;;;;;;;;;32.17;23.23;97896.63;5053918;28;19924;-86
2023/03/22 10:43:14;;;;;;;;;;;;;;;32.86;24.78;97889.34;5049524;28;19931;-86
2023/03/22 10:45:40;;;;;;;;;;;;;;;33.31;22.46;97891.41;5052877;28;19924;-86
2023/03/22 10:48:13;;;;;;;;;;;;;;;33.01;22.56;97881.47;5053624;28;19924;-85
2023/03/22 10:50:41;;;;;;;;;;;;;;;32.13;23.53;97876.19;5034781;28;19927;-86
2023/03/22 10:53:26;;;;;;;;;;;;;;;31.62;22.99;97882.31;5033385;28;19921;-86
2023/03/22 10:55:53;;;;;;;;;;;;;;;31.64;23.29;97882.63;5048417;28;19981;-86
2023/03/22 10:58:19;;;;;;;;;;;;;;;31.91;23.52;97881.47;5050662;28;19921;-86
2023/03/22 11:00:50;;;;;;;;;;;;;;;32.09;24.33;97882.06;5045022;28;19920;-86
2023/03/22 11:03:28;;;;;;;;;;;;;;;31.27;24.86;97872.91;5052929;28;19920;-86
2023/03/22 11:05:59;;;;;;;;;;;;;;;31.00;25.00;97878.81;5051333;28;20380;-86
2023/03/22 11:08:25;;;;;;;;;;;;;;;30.96;25.44;97869.72;5044899;28;20020;-87
2023/03/22 11:10:53;;;;;;;;;;;;;;;32.32;23.85;97868.19;5062371;28;19967;-87
2023/03/22 11:13:23;;;;;;;;;;;;;;;32.04;26.81;97859.28;5064592;28;20011;-86
2023/03/22 11:15:58;;;;;;;;;;;;;;;32.17;23.93;97865.38;5048293;28;19932;-87
2023/03/22 11:18:27;;;;;;;;;;;;;;;33.08;24.33;97858.31;5049572;28;20882;-87
2023/03/22 11:20:58;;;;;;;;;;;;;;;32.46;23.50;97853.13;5052772;28;19947;-86
2023/03/22 11:23:25;;;;;;;;;;;;;;;32.41;25.05;97857.47;5052965;28;20416;-86
2023/03/22 11:25:54;;;;;;;;;;;;;;;33.33;23.79;97857.53;5038612;28;20015;-86
2023/03/22 11:28:21;;;;;;;;;;;;;;;33.82;23.09;97851.50;5040913;28;19944;-86
2023/03/22 11:30:56;;;;;;;;;;;;;;;33.96;20.27;97855.50;5041279;28;19955;-85
2023/03/22 11:33:24;;;;;;;;;;;;;;;34.28;22.52;97859.91;5049032;28;19921;-86
2023/03/22 11:35:55;;;;;;;;;;;;;;;34.10;22.87;97848.88;5046802;28;19959;-89
2023/03/22 11:38:28;;;;;;;;;;;;;;;34.61;22.51;97845.06;5045447;28;19935;-87
2023/03/22 11:40:57;;;;;;;;;;;;;;;34.63;20.91;97839.63;5049199;28;19952;-88
2023/03/22 11:43:30;;;;;;;;;;;;;;;34.76;22.85;97837.06;5049627;28;20011;-87
2023/03/22 11:45:57;;;;;;;;;;;;;;;34.95;21.89;97832.47;5049471;28;19929;-87
2023/03/22 11:48:25;;;;;;;;;;;;;;;35.05;21.81;97838.75;5053909;28;19921;-87
2023/03/22 11:50:52;;;;;;;;;;;;;;;35.11;21.27;97837.44;5062602;28;19924;-87
2023/03/22 11:53:21;;;;;;;;;;;;;;;34.34;21.77;97842.81;5053262;28;20348;-87
2023/03/22 11:55:50;;;;;;;;;;;;;;;34.24;20.44;97833.69;5052406;28;19982;-88
2023/03/22 11:58:27;;;;;;;;;;;;;;;33.75;19.88;97837.72;5052362;28;19931;-88
2023/03/22 12:00:57;;;;;;;;;;;;;;;33.81;22.78;97829.25;5040663;28;19923;-88
2023/03/22 12:03:29;;;;;;;;;;;;;;;34.43;22.86;97816.94;5046732;28;19927;-88
2023/03/22 12:05:57;;;;;;;;;;;;;;;34.83;20.70;97824.38;5052752;28;20331;-88
2023/03/22 12:08:32;;;;;;;;;;;;;;;33.67;21.28;97824.47;5052062;28;19921;-87
2023/03/22 12:11:06;;;;;;;;;;;;;;;33.71;22.32;97827.88;5052429;28;20380;-88
2023/03/22 12:13:35;;;;;;;;;;;;;;;34.29;22.02;97829.31;5046896;28;19917;-88
2023/03/22 12:16:03;;;;;;;;;;;;;;;34.52;22.01;97820.38;5054394;28;20019;-88
2023/03/22 12:18:33;;;;;;;;;;;;;;;34.78;22.64;97825.13;5057963;28;19927;-88
2023/03/22 12:21:00;;;;;;;;;;;;;;;34.53;21.85;97821.16;5062390;28;19929;-88
2023/03/22 12:23:27;;;;;;;;;;;;;;;34.70;21.08;97810.59;5058349;28;19971;-88
2023/03/22 12:26:12;;;;;;;;;;;;;;;34.38;21.73;97812.75;5048171;28;20357;-88
2023/03/22 12:28:47;;;;;;;;;;;;;;;34.47;20.89;97812.53;5053592;28;19969;-88
2023/03/22 12:31:22;;;;;;;;;;;;;;;34.38;21.71;97812.00;5055859;28;19927;-88
2023/03/22 12:33:52;;;;;;;;;;;;;;;34.22;22.25;97807.75;5053104;28;20017;-88
2023/03/22 12:36:20;;;;;;;;;;;;;;;33.99;21.55;97806.06;5040662;28;19967;-88
2023/03/22 12:38:55;;;;;;;;;;;;;;;34.29;22.66;97803.66;5055336;28;19967;-88
2023/03/22 12:41:25;;;;;;;;;;;;;;;34.49;20.62;97792.88;5056044;28;19924;-88
2023/03/22 12:43:54;;;;;;;;;;;;;;;33.86;20.78;97797.16;5056076;28;19921;-87
2023/03/22 12:46:22;;;;;;;;;;;;;;;32.89;21.26;97800.94;5056056;28;20393;-88
2023/03/22 12:49:09;;;;;;;;;;;;;;;32.91;23.61;97798.38;5069153;28;19920;-88
2023/03/22 12:51:35;;;;;;;;;;;;;;;33.41;23.36;97801.72;5055117;28;20409;-88
2023/03/22 12:54:01;;;;;;;;;;;;;;;34.25;23.16;97797.41;5056205;28;19917;-88